sensor_id;sensor_type;location;lat;lon;timestamp;pressure;altitude;pressure_sealevel;temperature
19282;BMP180;9774;52.034;5.342;2023-05-10T00:01:23;100654.00;;;19.60
19282;BMP180;9774;52.034;5.342;2023-05-10T00:03:51;100655.00;;;19.60
19282;BMP180;9774;52.034;5.342;2023-05-10T00:06:18;100650.00;;;19.60
19282;BMP180;9774;52.034;5.342;2023-05-10T00:08:46;100649.00;;;19.60
19282;BMP180;9774;52.034;5.342;2023-05-10T00:11:13;100648.00;;;19.60
19282;BMP180;9774;52.034;5.342;2023-05-10T00:13:42;100654.00;;;19.60
19282;BMP180;9774;52.034;5.342;2023-05-10T00:16:09;100655.00;;;19.60
19282;BMP180;9774;52.034;5.342;2023-05-10T00:18:38;100654.00;;;19.60
19282;BMP180;9774;52.034;5.342;2023-05-10T00:21:05;100644.00;;;19.60
19282;BMP180;9774;52.034;5.342;2023-05-10T00:23:33;100653.00;;;19.60
19282;BMP180;9774;52.034;5.342;2023-05-10T00:26:00;100651.00;;;19.60
19282;BMP180;9774;52.034;5.342;2023-05-10T00:28:28;100645.00;;;19.60
19282;BMP180;9774;52.034;5.342;2023-05-10T00:30:56;100644.00;;;19.60
19282;BMP180;9774;52.034;5.342;2023-05-10T00:33:24;100645.00;;;19.60
19282;BMP180;9774;52.034;5.342;2023-05-10T00:35:51;100648.00;;;19.60
19282;BMP180;9774;52.034;5.342;2023-05-10T00:38:19;100649.00;;;19.60
19282;BMP180;9774;52.034;5.342;2023-05-10T00:40:46;100645.00;;;19.60
19282;BMP180;9774;52.034;5.342;2023-05-10T00:43:13;100644.00;;;19.60
19282;BMP180;9774;52.034;5.342;2023-05-10T00:45:41;100648.00;;;19.60
19282;BMP180;9774;52.034;5.342;2023-05-10T00:48:09;100648.00;;;19.60
19282;BMP180;9774;52.034;5.342;2023-05-10T00:50:37;100646.00;;;19.60
19282;BMP180;9774;52.034;5.342;2023-05-10T00:53:06;100641.00;;;19.60
19282;BMP180;9774;52.034;5.342;2023-05-10T00:55:33;100644.00;;;19.60
19282;BMP180;9774;52.034;5.342;2023-05-10T00:58:00;100645.00;;;19.60
19282;BMP180;9774;52.034;5.342;2023-05-10T01:00:28;100650.00;;;19.60
19282;BMP180;9774;52.034;5.342;2023-05-10T01:02:55;100646.00;;;19.60
19282;BMP180;9774;52.034;5.342;2023-05-10T01:05:24;100643.00;;;19.60
19282;BMP180;9774;52.034;5.342;2023-05-10T01:07:53;100653.00;;;19.60
19282;BMP180;9774;52.034;5.342;2023-05-10T01:10:20;100647.00;;;19.60
19282;BMP180;9774;52.034;5.342;2023-05-10T01:12:48;100650.00;;;19.60
19282;BMP180;9774;52.034;5.342;2023-05-10T01:15:16;100648.00;;;19.60
19282;BMP180;9774;52.034;5.342;2023-05-10T01:17:45;100641.00;;;19.60
19282;BMP180;9774;52.034;5.342;2023-05-10T01:20:14;100649.00;;;19.60
19282;BMP180;9774;52.034;5.342;2023-05-10T01:23:04;100648.00;;;19.60
19282;BMP180;9774;52.034;5.342;2023-05-10T01:26:01;100653.00;;;19.50
19282;BMP180;9774;52.034;5.342;2023-05-10T01:28:58;100647.00;;;19.50
19282;BMP180;9774;52.034;5.342;2023-05-10T01:34:52;100643.00;;;19.60
19282;BMP180;9774;52.034;5.342;2023-05-10T01:37:25;100649.00;;;19.60
19282;BMP180;9774;52.034;5.342;2023-05-10T01:40:00;100650.00;;;19.60
19282;BMP180;9774;52.034;5.342;2023-05-10T01:42:32;100655.00;;;19.60
19282;BMP180;9774;52.034;5.342;2023-05-10T01:45:07;100645.00;;;19.60
19282;BMP180;9774;52.034;5.342;2023-05-10T01:47:40;100646.00;;;19.60
19282;BMP180;9774;52.034;5.342;2023-05-10T01:50:15;100651.00;;;19.60
19282;BMP180;9774;52.034;5.342;2023-05-10T01:52:44;100656.00;;;19.60
19282;BMP180;9774;52.034;5.342;2023-05-10T01:55:16;100654.00;;;19.60
19282;BMP180;9774;52.034;5.342;2023-05-10T01:57:47;100659.00;;;19.50
19282;BMP180;9774;52.034;5.342;2023-05-10T02:00:16;100651.00;;;19.50
19282;BMP180;9774;52.034;5.342;2023-05-10T02:02:48;100654.00;;;19.50
19282;BMP180;9774;52.034;5.342;2023-05-10T02:05:17;100655.00;;;19.50
19282;BMP180;9774;52.034;5.342;2023-05-10T02:07:45;100660.00;;;19.50
19282;BMP180;9774;52.034;5.342;2023-05-10T02:10:14;100663.00;;;19.40
19282;BMP180;9774;52.034;5.342;2023-05-10T02:12:43;100659.00;;;19.40
19282;BMP180;9774;52.034;5.342;2023-05-10T02:15:13;100659.00;;;19.40
19282;BMP180;9774;52.034;5.342;2023-05-10T02:17:42;100665.00;;;19.40
19282;BMP180;9774;52.034;5.342;2023-05-10T02:20:12;100666.00;;;19.40
19282;BMP180;9774;52.034;5.342;2023-05-10T02:22:40;100672.00;;;19.40
19282;BMP180;9774;52.034;5.342;2023-05-10T02:25:09;100671.00;;;19.30
19282;BMP180;9774;52.034;5.342;2023-05-10T02:27:37;100680.00;;;19.30
19282;BMP180;9774;52.034;5.342;2023-05-10T02:30:08;100683.00;;;19.30
19282;BMP180;9774;52.034;5.342;2023-05-10T02:32:36;100680.00;;;19.30
19282;BMP180;9774;52.034;5.342;2023-05-10T02:35:04;100682.00;;;19.30
19282;BMP180;9774;52.034;5.342;2023-05-10T02:37:35;100685.00;;;19.20
19282;BMP180;9774;52.034;5.342;2023-05-10T02:40:05;100684.00;;;19.20
19282;BMP180;9774;52.034;5.342;2023-05-10T02:42:35;100696.00;;;19.20
19282;BMP180;9774;52.034;5.342;2023-05-10T02:45:05;100688.00;;;19.10
19282;BMP180;9774;52.034;5.342;2023-05-10T02:47:34;100689.00;;;19.10
19282;BMP180;9774;52.034;5.342;2023-05-10T02:50:02;100691.00;;;19.10
19282;BMP180;9774;52.034;5.342;2023-05-10T02:52:34;100690.00;;;19.10
19282;BMP180;9774;52.034;5.342;2023-05-10T02:55:06;100684.00;;;19.10
19282;BMP180;9774;52.034;5.342;2023-05-10T02:57:40;100694.00;;;19.00
19282;BMP180;9774;52.034;5.342;2023-05-10T03:00:09;100688.00;;;19.10
19282;BMP180;9774;52.034;5.342;2023-05-10T03:02:37;100698.00;;;19.10
19282;BMP180;9774;52.034;5.342;2023-05-10T03:05:05;100694.00;;;19.00
19282;BMP180;9774;52.034;5.342;2023-05-10T03:07:34;100700.00;;;19.00
19282;BMP180;9774;52.034;5.342;2023-05-10T03:10:01;100699.00;;;19.00
19282;BMP180;9774;52.034;5.342;2023-05-10T03:12:39;100691.00;;;19.00
19282;BMP180;9774;52.034;5.342;2023-05-10T03:15:13;100690.00;;;19.00
19282;BMP180;9774;52.034;5.342;2023-05-10T03:17:47;100680.00;;;19.00
19282;BMP180;9774;52.034;5.342;2023-05-10T03:20:25;100691.00;;;19.00
19282;BMP180;9774;52.034;5.342;2023-05-10T03:23:04;100688.00;;;19.00
19282;BMP180;9774;52.034;5.342;2023-05-10T03:25:34;100698.00;;;19.00
19282;BMP180;9774;52.034;5.342;2023-05-10T03:28:04;100697.00;;;19.00
19282;BMP180;9774;52.034;5.342;2023-05-10T03:30:32;100698.00;;;19.00
19282;BMP180;9774;52.034;5.342;2023-05-10T03:33:04;100700.00;;;19.00
19282;BMP180;9774;52.034;5.342;2023-05-10T03:35:32;100706.00;;;19.10
19282;BMP180;9774;52.034;5.342;2023-05-10T03:37:59;100707.00;;;19.10
19282;BMP180;9774;52.034;5.342;2023-05-10T03:40:27;100701.00;;;19.10
19282;BMP180;9774;52.034;5.342;2023-05-10T03:42:57;100704.00;;;19.10
19282;BMP180;9774;52.034;5.342;2023-05-10T03:45:26;100705.00;;;19.10
19282;BMP180;9774;52.034;5.342;2023-05-10T03:47:53;100715.00;;;19.10
19282;BMP180;9774;52.034;5.342;2023-05-10T03:50:21;100701.00;;;19.10
19282;BMP180;9774;52.034;5.342;2023-05-10T03:52:49;100709.00;;;19.10
19282;BMP180;9774;52.034;5.342;2023-05-10T03:55:16;100707.00;;;19.10
19282;BMP180;9774;52.034;5.342;2023-05-10T03:57:43;100702.00;;;19.10
19282;BMP180;9774;52.034;5.342;2023-05-10T04:00:12;100704.00;;;19.10
19282;BMP180;9774;52.034;5.342;2023-05-10T04:02:41;100706.00;;;19.10
19282;BMP180;9774;52.034;5.342;2023-05-10T04:05:08;100710.00;;;19.10
19282;BMP180;9774;52.034;5.342;2023-05-10T04:07:36;100709.00;;;19.10
19282;BMP180;9774;52.034;5.342;2023-05-10T04:10:04;100708.00;;;19.10
19282;BMP180;9774;52.034;5.342;2023-05-10T04:12:32;100710.00;;;19.10
19282;BMP180;9774;52.034;5.342;2023-05-10T04:14:59;100708.00;;;19.10
19282;BMP180;9774;52.034;5.342;2023-05-10T04:17:27;100709.00;;;19.10
19282;BMP180;9774;52.034;5.342;2023-05-10T04:19:56;100710.00;;;19.10
19282;BMP180;9774;52.034;5.342;2023-05-10T04:22:23;100713.00;;;19.10
19282;BMP180;9774;52.034;5.342;2023-05-10T04:24:50;100715.00;;;19.10
19282;BMP180;9774;52.034;5.342;2023-05-10T04:27:18;100716.00;;;19.10
19282;BMP180;9774;52.034;5.342;2023-05-10T04:29:45;100710.00;;;19.10
19282;BMP180;9774;52.034;5.342;2023-05-10T04:32:13;100714.00;;;19.10
19282;BMP180;9774;52.034;5.342;2023-05-10T04:34:42;100716.00;;;19.10
19282;BMP180;9774;52.034;5.342;2023-05-10T04:37:10;100711.00;;;19.10
19282;BMP180;9774;52.034;5.342;2023-05-10T04:39:38;100707.00;;;19.20
19282;BMP180;9774;52.034;5.342;2023-05-10T04:42:05;100709.00;;;19.20
19282;BMP180;9774;52.034;5.342;2023-05-10T04:44:33;100714.00;;;19.20
19282;BMP180;9774;52.034;5.342;2023-05-10T04:47:00;100722.00;;;19.20
19282;BMP180;9774;52.034;5.342;2023-05-10T04:49:28;100716.00;;;19.20
19282;BMP180;9774;52.034;5.342;2023-05-10T04:51:55;100718.00;;;19.20
19282;BMP180;9774;52.034;5.342;2023-05-10T04:54:24;100719.00;;;19.20
19282;BMP180;9774;52.034;5.342;2023-05-10T04:56:51;100719.00;;;19.20
19282;BMP180;9774;52.034;5.342;2023-05-10T04:59:19;100727.00;;;19.20
19282;BMP180;9774;52.034;5.342;2023-05-10T05:01:46;100730.00;;;19.20
19282;BMP180;9774;52.034;5.342;2023-05-10T05:04:13;100723.00;;;19.20
19282;BMP180;9774;52.034;5.342;2023-05-10T05:06:41;100725.00;;;19.20
19282;BMP180;9774;52.034;5.342;2023-05-10T05:09:09;100725.00;;;19.30
19282;BMP180;9774;52.034;5.342;2023-05-10T05:11:38;100724.00;;;19.30
19282;BMP180;9774;52.034;5.342;2023-05-10T05:14:06;100729.00;;;19.30
19282;BMP180;9774;52.034;5.342;2023-05-10T05:16:33;100730.00;;;19.30
19282;BMP180;9774;52.034;5.342;2023-05-10T05:19:00;100731.00;;;19.30
19282;BMP180;9774;52.034;5.342;2023-05-10T05:21:28;100737.00;;;19.30
19282;BMP180;9774;52.034;5.342;2023-05-10T05:23:55;100746.00;;;19.40
19282;BMP180;9774;52.034;5.342;2023-05-10T05:26:22;100744.00;;;19.30
19282;BMP180;9774;52.034;5.342;2023-05-10T05:28:51;100750.00;;;19.30
19282;BMP180;9774;52.034;5.342;2023-05-10T05:31:20;100750.00;;;19.40
19282;BMP180;9774;52.034;5.342;2023-05-10T05:33:48;100751.00;;;19.40
19282;BMP180;9774;52.034;5.342;2023-05-10T05:36:15;100748.00;;;19.40
19282;BMP180;9774;52.034;5.342;2023-05-10T05:38:42;100750.00;;;19.40
19282;BMP180;9774;52.034;5.342;2023-05-10T05:41:10;100753.00;;;19.40
19282;BMP180;9774;52.034;5.342;2023-05-10T05:43:37;100757.00;;;19.40
19282;BMP180;9774;52.034;5.342;2023-05-10T05:46:06;100757.00;;;19.40
19282;BMP180;9774;52.034;5.342;2023-05-10T05:48:33;100759.00;;;19.40
19282;BMP180;9774;52.034;5.342;2023-05-10T05:51:01;100755.00;;;19.40
19282;BMP180;9774;52.034;5.342;2023-05-10T05:53:28;100766.00;;;19.40
19282;BMP180;9774;52.034;5.342;2023-05-10T05:55:57;100760.00;;;19.40
19282;BMP180;9774;52.034;5.342;2023-05-10T05:58:25;100765.00;;;19.40
19282;BMP180;9774;52.034;5.342;2023-05-10T06:00:53;100765.00;;;19.40
19282;BMP180;9774;52.034;5.342;2023-05-10T06:03:22;100765.00;;;19.40
19282;BMP180;9774;52.034;5.342;2023-05-10T06:05:49;100775.00;;;19.40
19282;BMP180;9774;52.034;5.342;2023-05-10T06:08:16;100775.00;;;19.40
19282;BMP180;9774;52.034;5.342;2023-05-10T06:10:43;100778.00;;;19.40
19282;BMP180;9774;52.034;5.342;2023-05-10T06:13:11;100784.00;;;19.40
19282;BMP180;9774;52.034;5.342;2023-05-10T06:15:38;100782.00;;;19.40
19282;BMP180;9774;52.034;5.342;2023-05-10T06:18:06;100787.00;;;19.40
19282;BMP180;9774;52.034;5.342;2023-05-10T06:20:35;100794.00;;;19.30
19282;BMP180;9774;52.034;5.342;2023-05-10T06:23:02;100788.00;;;19.40
19282;BMP180;9774;52.034;5.342;2023-05-10T06:25:29;100792.00;;;19.40
19282;BMP180;9774;52.034;5.342;2023-05-10T06:27:57;100785.00;;;19.40
19282;BMP180;9774;52.034;5.342;2023-05-10T06:30:25;100796.00;;;19.30
19282;BMP180;9774;52.034;5.342;2023-05-10T06:32:54;100793.00;;;19.30
19282;BMP180;9774;52.034;5.342;2023-05-10T06:35:22;100797.00;;;19.30
19282;BMP180;9774;52.034;5.342;2023-05-10T06:37:51;100802.00;;;19.30
19282;BMP180;9774;52.034;5.342;2023-05-10T06:40:18;100805.00;;;19.30
19282;BMP180;9774;52.034;5.342;2023-05-10T06:42:46;100800.00;;;19.30
19282;BMP180;9774;52.034;5.342;2023-05-10T06:45:14;100807.00;;;19.40
19282;BMP180;9774;52.034;5.342;2023-05-10T06:47:41;100803.00;;;19.40
19282;BMP180;9774;52.034;5.342;2023-05-10T06:50:09;100817.00;;;19.40
19282;BMP180;9774;52.034;5.342;2023-05-10T06:52:37;100808.00;;;19.50
19282;BMP180;9774;52.034;5.342;2023-05-10T06:55:07;100814.00;;;19.50
19282;BMP180;9774;52.034;5.342;2023-05-10T06:57:34;100812.00;;;19.50
19282;BMP180;9774;52.034;5.342;2023-05-10T07:00:03;100811.00;;;19.60
19282;BMP180;9774;52.034;5.342;2023-05-10T07:02:31;100811.00;;;19.60
19282;BMP180;9774;52.034;5.342;2023-05-10T07:04:58;100809.00;;;19.60
19282;BMP180;9774;52.034;5.342;2023-05-10T07:07:25;100817.00;;;19.60
19282;BMP180;9774;52.034;5.342;2023-05-10T07:09:53;100823.00;;;19.60
19282;BMP180;9774;52.034;5.342;2023-05-10T07:12:22;100821.00;;;19.60
19282;BMP180;9774;52.034;5.342;2023-05-10T07:14:49;100823.00;;;19.70
19282;BMP180;9774;52.034;5.342;2023-05-10T07:17:16;100832.00;;;19.70
19282;BMP180;9774;52.034;5.342;2023-05-10T07:19:44;100828.00;;;19.70
19282;BMP180;9774;52.034;5.342;2023-05-10T07:22:11;100833.00;;;19.70
19282;BMP180;9774;52.034;5.342;2023-05-10T07:24:39;100837.00;;;19.80
19282;BMP180;9774;52.034;5.342;2023-05-10T07:27:06;100839.00;;;19.80
19282;BMP180;9774;52.034;5.342;2023-05-10T07:29:35;100848.00;;;19.80
19282;BMP180;9774;52.034;5.342;2023-05-10T07:32:03;100857.00;;;19.90
19282;BMP180;9774;52.034;5.342;2023-05-10T07:34:30;100859.00;;;19.90
19282;BMP180;9774;52.034;5.342;2023-05-10T07:36:58;100855.00;;;19.90
19282;BMP180;9774;52.034;5.342;2023-05-10T07:39:26;100858.00;;;20.00
19282;BMP180;9774;52.034;5.342;2023-05-10T07:41:53;100856.00;;;20.00
19282;BMP180;9774;52.034;5.342;2023-05-10T07:44:21;100858.00;;;20.10
19282;BMP180;9774;52.034;5.342;2023-05-10T07:46:50;100860.00;;;20.10
19282;BMP180;9774;52.034;5.342;2023-05-10T07:49:17;100864.00;;;20.10
19282;BMP180;9774;52.034;5.342;2023-05-10T07:51:44;100860.00;;;20.10
19282;BMP180;9774;52.034;5.342;2023-05-10T07:54:12;100864.00;;;20.10
19282;BMP180;9774;52.034;5.342;2023-05-10T07:56:39;100863.00;;;20.10
19282;BMP180;9774;52.034;5.342;2023-05-10T07:59:15;100869.00;;;20.10
19282;BMP180;9774;52.034;5.342;2023-05-10T08:01:43;100871.00;;;20.10
19282;BMP180;9774;52.034;5.342;2023-05-10T08:04:14;100877.00;;;20.00
19282;BMP180;9774;52.034;5.342;2023-05-10T08:06:42;100879.00;;;20.10
19282;BMP180;9774;52.034;5.342;2023-05-10T08:09:09;100882.00;;;20.10
19282;BMP180;9774;52.034;5.342;2023-05-10T08:11:36;100882.00;;;20.20
19282;BMP180;9774;52.034;5.342;2023-05-10T08:14:04;100888.00;;;20.20
19282;BMP180;9774;52.034;5.342;2023-05-10T08:16:31;100885.00;;;20.20
19282;BMP180;9774;52.034;5.342;2023-05-10T08:19:00;100891.00;;;20.20
19282;BMP180;9774;52.034;5.342;2023-05-10T08:21:29;100885.00;;;20.20
19282;BMP180;9774;52.034;5.342;2023-05-10T08:23:57;100893.00;;;20.30
19282;BMP180;9774;52.034;5.342;2023-05-10T08:26:25;100900.00;;;20.30
19282;BMP180;9774;52.034;5.342;2023-05-10T08:28:52;100903.00;;;20.40
19282;BMP180;9774;52.034;5.342;2023-05-10T08:31:19;100910.00;;;20.40
19282;BMP180;9774;52.034;5.342;2023-05-10T08:33:47;100913.00;;;20.40
19282;BMP180;9774;52.034;5.342;2023-05-10T08:36:14;100910.00;;;20.40
19282;BMP180;9774;52.034;5.342;2023-05-10T08:38:47;100908.00;;;20.40
19282;BMP180;9774;52.034;5.342;2023-05-10T08:41:14;100917.00;;;20.50
19282;BMP180;9774;52.034;5.342;2023-05-10T08:43:44;100916.00;;;20.50
19282;BMP180;9774;52.034;5.342;2023-05-10T08:46:16;100919.00;;;20.50
19282;BMP180;9774;52.034;5.342;2023-05-10T08:48:45;100923.00;;;20.50
19282;BMP180;9774;52.034;5.342;2023-05-10T08:51:14;100920.00;;;20.50
19282;BMP180;9774;52.034;5.342;2023-05-10T08:53:42;100926.00;;;20.50
19282;BMP180;9774;52.034;5.342;2023-05-10T08:56:14;100923.00;;;20.50
19282;BMP180;9774;52.034;5.342;2023-05-10T09:01:32;100929.00;;;20.60
19282;BMP180;9774;52.034;5.342;2023-05-10T09:04:00;100929.00;;;20.60
19282;BMP180;9774;52.034;5.342;2023-05-10T09:06:28;100926.00;;;20.70
19282;BMP180;9774;52.034;5.342;2023-05-10T09:08:59;100931.00;;;20.70
19282;BMP180;9774;52.034;5.342;2023-05-10T09:11:28;100940.00;;;20.70
19282;BMP180;9774;52.034;5.342;2023-05-10T09:13:56;100929.00;;;20.80
19282;BMP180;9774;52.034;5.342;2023-05-10T09:16:24;100932.00;;;20.80
19282;BMP180;9774;52.034;5.342;2023-05-10T09:18:51;100929.00;;;20.90
19282;BMP180;9774;52.034;5.342;2023-05-10T09:21:20;100931.00;;;20.90
19282;BMP180;9774;52.034;5.342;2023-05-10T09:23:48;100941.00;;;21.00
19282;BMP180;9774;52.034;5.342;2023-05-10T09:26:16;100941.00;;;21.00
19282;BMP180;9774;52.034;5.342;2023-05-10T09:28:55;100940.00;;;21.00
19282;BMP180;9774;52.034;5.342;2023-05-10T09:31:24;100940.00;;;21.10
19282;BMP180;9774;52.034;5.342;2023-05-10T09:34:15;100946.00;;;21.20
19282;BMP180;9774;52.034;5.342;2023-05-10T09:36:51;100946.00;;;21.10
19282;BMP180;9774;52.034;5.342;2023-05-10T09:39:20;100949.00;;;21.30
19282;BMP180;9774;52.034;5.342;2023-05-10T09:41:48;100947.00;;;21.30
19282;BMP180;9774;52.034;5.342;2023-05-10T09:44:18;100957.00;;;21.30
19282;BMP180;9774;52.034;5.342;2023-05-10T09:46:50;100962.00;;;21.30
19282;BMP180;9774;52.034;5.342;2023-05-10T09:49:18;100972.00;;;21.40
19282;BMP180;9774;52.034;5.342;2023-05-10T09:51:46;100970.00;;;21.40
19282;BMP180;9774;52.034;5.342;2023-05-10T09:54:16;100968.00;;;21.40
19282;BMP180;9774;52.034;5.342;2023-05-10T09:56:43;100978.00;;;21.40
19282;BMP180;9774;52.034;5.342;2023-05-10T09:59:12;100983.00;;;21.40
19282;BMP180;9774;52.034;5.342;2023-05-10T10:01:41;100978.00;;;21.40
19282;BMP180;9774;52.034;5.342;2023-05-10T10:04:09;100975.00;;;21.50
19282;BMP180;9774;52.034;5.342;2023-05-10T10:06:37;100974.00;;;21.60
19282;BMP180;9774;52.034;5.342;2023-05-10T10:09:05;100977.00;;;21.60
19282;BMP180;9774;52.034;5.342;2023-05-10T10:11:33;100982.00;;;21.70
19282;BMP180;9774;52.034;5.342;2023-05-10T10:14:01;100983.00;;;21.70
19282;BMP180;9774;52.034;5.342;2023-05-10T10:16:29;100986.00;;;21.80
19282;BMP180;9774;52.034;5.342;2023-05-10T10:18:58;100981.00;;;21.80
19282;BMP180;9774;52.034;5.342;2023-05-10T10:21:26;100980.00;;;21.80
19282;BMP180;9774;52.034;5.342;2023-05-10T10:23:53;100986.00;;;21.90
19282;BMP180;9774;52.034;5.342;2023-05-10T10:26:21;100982.00;;;21.90
19282;BMP180;9774;52.034;5.342;2023-05-10T10:28:56;100985.00;;;21.90
19282;BMP180;9774;52.034;5.342;2023-05-10T10:31:34;100989.00;;;21.90
19282;BMP180;9774;52.034;5.342;2023-05-10T10:34:06;100988.00;;;22.00
19282;BMP180;9774;52.034;5.342;2023-05-10T10:36:40;100994.00;;;21.90
19282;BMP180;9774;52.034;5.342;2023-05-10T10:39:10;100993.00;;;22.00
19282;BMP180;9774;52.034;5.342;2023-05-10T10:41:39;100998.00;;;22.00
19282;BMP180;9774;52.034;5.342;2023-05-10T10:44:38;100995.00;;;21.90
19282;BMP180;9774;52.034;5.342;2023-05-10T10:47:21;100993.00;;;22.00
19282;BMP180;9774;52.034;5.342;2023-05-10T10:50:05;100998.00;;;21.80
19282;BMP180;9774;52.034;5.342;2023-05-10T10:52:34;100998.00;;;21.90
19282;BMP180;9774;52.034;5.342;2023-05-10T10:55:04;100986.00;;;21.90
19282;BMP180;9774;52.034;5.342;2023-05-10T10:57:33;100998.00;;;22.00
19282;BMP180;9774;52.034;5.342;2023-05-10T11:00:24;100993.00;;;21.90
19282;BMP180;9774;52.034;5.342;2023-05-10T11:02:53;100987.00;;;22.00
19282;BMP180;9774;52.034;5.342;2023-05-10T11:05:40;100993.00;;;22.00
19282;BMP180;9774;52.034;5.342;2023-05-10T11:08:11;100991.00;;;22.10
19282;BMP180;9774;52.034;5.342;2023-05-10T11:10:39;100986.00;;;22.20
19282;BMP180;9774;52.034;5.342;2023-05-10T11:13:08;100992.00;;;22.30
19282;BMP180;9774;52.034;5.342;2023-05-10T11:15:37;100985.00;;;22.30
19282;BMP180;9774;52.034;5.342;2023-05-10T11:18:20;100985.00;;;22.30
19282;BMP180;9774;52.034;5.342;2023-05-10T11:20:52;100995.00;;;22.40
19282;BMP180;9774;52.034;5.342;2023-05-10T11:23:22;100991.00;;;22.50
19282;BMP180;9774;52.034;5.342;2023-05-10T11:25:50;100997.00;;;22.60
19282;BMP180;9774;52.034;5.342;2023-05-10T11:28:17;100991.00;;;22.70
19282;BMP180;9774;52.034;5.342;2023-05-10T11:30:45;100992.00;;;22.80
19282;BMP180;9774;52.034;5.342;2023-05-10T11:33:17;100999.00;;;22.90
19282;BMP180;9774;52.034;5.342;2023-05-10T11:35:45;100993.00;;;23.00
19282;BMP180;9774;52.034;5.342;2023-05-10T11:38:14;100996.00;;;23.10
19282;BMP180;9774;52.034;5.342;2023-05-10T11:40:42;101006.00;;;23.30
19282;BMP180;9774;52.034;5.342;2023-05-10T11:43:10;100997.00;;;23.30
19282;BMP180;9774;52.034;5.342;2023-05-10T11:45:39;100997.00;;;23.30
19282;BMP180;9774;52.034;5.342;2023-05-10T11:48:07;101001.00;;;23.30
19282;BMP180;9774;52.034;5.342;2023-05-10T11:50:34;100996.00;;;23.40
19282;BMP180;9774;52.034;5.342;2023-05-10T11:53:02;101004.00;;;23.40
19282;BMP180;9774;52.034;5.342;2023-05-10T11:55:33;101014.00;;;23.30
19282;BMP180;9774;52.034;5.342;2023-05-10T11:58:02;101015.00;;;23.30
19282;BMP180;9774;52.034;5.342;2023-05-10T12:00:30;101012.00;;;23.20
19282;BMP180;9774;52.034;5.342;2023-05-10T12:02:59;101011.00;;;23.20
19282;BMP180;9774;52.034;5.342;2023-05-10T12:05:27;101023.00;;;23.20
19282;BMP180;9774;52.034;5.342;2023-05-10T12:08:11;101016.00;;;23.00
19282;BMP180;9774;52.034;5.342;2023-05-10T12:10:40;101012.00;;;23.10
19282;BMP180;9774;52.034;5.342;2023-05-10T12:13:11;101009.00;;;23.10
19282;BMP180;9774;52.034;5.342;2023-05-10T12:15:40;101005.00;;;23.10
19282;BMP180;9774;52.034;5.342;2023-05-10T12:18:08;101008.00;;;23.00
19282;BMP180;9774;52.034;5.342;2023-05-10T12:20:38;101016.00;;;23.00
19282;BMP180;9774;52.034;5.342;2023-05-10T12:23:05;101014.00;;;23.00
19282;BMP180;9774;52.034;5.342;2023-05-10T12:25:35;101014.00;;;23.00
19282;BMP180;9774;52.034;5.342;2023-05-10T12:28:06;101015.00;;;23.00
19282;BMP180;9774;52.034;5.342;2023-05-10T12:30:34;101019.00;;;23.00
19282;BMP180;9774;52.034;5.342;2023-05-10T12:33:06;101025.00;;;22.90
19282;BMP180;9774;52.034;5.342;2023-05-10T12:35:44;101023.00;;;22.80
19282;BMP180;9774;52.034;5.342;2023-05-10T12:38:25;101020.00;;;22.70
19282;BMP180;9774;52.034;5.342;2023-05-10T12:40:55;101040.00;;;22.70
19282;BMP180;9774;52.034;5.342;2023-05-10T12:43:24;101038.00;;;22.50
19282;BMP180;9774;52.034;5.342;2023-05-10T12:45:51;101033.00;;;22.40
19282;BMP180;9774;52.034;5.342;2023-05-10T12:48:18;101037.00;;;22.30
19282;BMP180;9774;52.034;5.342;2023-05-10T12:50:46;101042.00;;;22.20
19282;BMP180;9774;52.034;5.342;2023-05-10T12:53:14;101042.00;;;22.10
19282;BMP180;9774;52.034;5.342;2023-05-10T12:55:42;101046.00;;;22.00
19282;BMP180;9774;52.034;5.342;2023-05-10T12:58:10;101051.00;;;22.00
19282;BMP180;9774;52.034;5.342;2023-05-10T13:00:38;101057.00;;;21.90
19282;BMP180;9774;52.034;5.342;2023-05-10T13:03:06;101058.00;;;21.90
19282;BMP180;9774;52.034;5.342;2023-05-10T13:05:33;101062.00;;;21.90
19282;BMP180;9774;52.034;5.342;2023-05-10T13:08:00;101058.00;;;21.90
19282;BMP180;9774;52.034;5.342;2023-05-10T13:10:29;101058.00;;;21.80
19282;BMP180;9774;52.034;5.342;2023-05-10T13:12:56;101072.00;;;21.80
19282;BMP180;9774;52.034;5.342;2023-05-10T13:15:24;101065.00;;;21.70
19282;BMP180;9774;52.034;5.342;2023-05-10T13:17:53;101075.00;;;21.60
19282;BMP180;9774;52.034;5.342;2023-05-10T13:20:21;101075.00;;;21.50
19282;BMP180;9774;52.034;5.342;2023-05-10T13:22:48;101074.00;;;21.40
19282;BMP180;9774;52.034;5.342;2023-05-10T13:25:15;101070.00;;;21.40
19282;BMP180;9774;52.034;5.342;2023-05-10T13:27:43;101076.00;;;21.30
19282;BMP180;9774;52.034;5.342;2023-05-10T13:30:10;101079.00;;;21.20
19282;BMP180;9774;52.034;5.342;2023-05-10T13:32:38;101074.00;;;21.20
19282;BMP180;9774;52.034;5.342;2023-05-10T13:35:07;101076.00;;;21.10
19282;BMP180;9774;52.034;5.342;2023-05-10T13:37:35;101079.00;;;21.00
19282;BMP180;9774;52.034;5.342;2023-05-10T13:40:04;101082.00;;;21.00
19282;BMP180;9774;52.034;5.342;2023-05-10T13:42:32;101082.00;;;20.90
19282;BMP180;9774;52.034;5.342;2023-05-10T13:45:00;101084.00;;;20.90
19282;BMP180;9774;52.034;5.342;2023-05-10T13:47:27;101091.00;;;20.80
19282;BMP180;9774;52.034;5.342;2023-05-10T13:49:55;101083.00;;;20.80
19282;BMP180;9774;52.034;5.342;2023-05-10T13:52:24;101075.00;;;20.80
19282;BMP180;9774;52.034;5.342;2023-05-10T13:54:52;101086.00;;;20.80
19282;BMP180;9774;52.034;5.342;2023-05-10T13:57:20;101085.00;;;20.80
19282;BMP180;9774;52.034;5.342;2023-05-10T13:59:49;101090.00;;;20.80
19282;BMP180;9774;52.034;5.342;2023-05-10T14:02:16;101082.00;;;20.80
19282;BMP180;9774;52.034;5.342;2023-05-10T14:04:43;101086.00;;;20.80
19282;BMP180;9774;52.034;5.342;2023-05-10T14:07:11;101076.00;;;20.80
19282;BMP180;9774;52.034;5.342;2023-05-10T14:09:39;101080.00;;;20.80
19282;BMP180;9774;52.034;5.342;2023-05-10T14:12:06;101078.00;;;20.80
19282;BMP180;9774;52.034;5.342;2023-05-10T14:14:34;101085.00;;;20.80
19282;BMP180;9774;52.034;5.342;2023-05-10T14:17:01;101078.00;;;20.90
19282;BMP180;9774;52.034;5.342;2023-05-10T14:19:28;101081.00;;;20.90
19282;BMP180;9774;52.034;5.342;2023-05-10T14:21:58;101079.00;;;20.90
19282;BMP180;9774;52.034;5.342;2023-05-10T14:24:25;101084.00;;;20.90
19282;BMP180;9774;52.034;5.342;2023-05-10T14:26:54;101080.00;;;20.90